Time;durP1;ratioP1;P1;durP2;ratioP2;P2;SDS_P1;SDS_P2;PMS_P1;PMS_P2;Temp;Humidity;BMP_temperature;BMP_pressure;BME280_temperature;BME280_humidity;BME280_pressure;Samples;Min_cycle;Max_cycle;Signal;HPM_P1;HPM_P2
2021/12/08 00:00:44;;;;;;;0.68;0.68;;;3.90;99.90;;;;;;4964107;28;20096;-80
2021/12/08 00:03:12;;;;;;;1.10;1.00;;;3.90;99.90;;;;;;4964023;28;20409;-80
2021/12/08 00:05:39;;;;;;;1.40;1.30;;;3.90;99.90;;;;;;4967533;28;20414;-80
2021/12/08 00:08:06;;;;;;;2.75;2.13;;;3.90;99.90;;;;;;4984294;28;20100;-80
2021/12/08 00:13:08;;;;;;;3.37;1.53;;;3.90;99.90;;;;;;4975743;28;20046;-80
2021/12/08 00:15:38;;;;;;;5.43;1.20;;;3.90;99.90;;;;;;4967003;28;20130;-80
2021/12/08 00:18:10;;;;;;;1.30;1.20;;;3.90;99.90;;;;;;4967593;28;20193;-80
2021/12/08 00:20:37;;;;;;;0.98;0.98;;;3.90;99.90;;;;;;4969652;28;20046;-80
2021/12/08 00:23:05;;;;;;;14.67;1.93;;;3.90;99.90;;;;;;4981229;28;20454;-80
2021/12/08 00:25:31;;;;;;;4.82;1.98;;;4.00;99.90;;;;;;4970387;28;20405;-80
2021/12/08 00:27:58;;;;;;;2.67;1.63;;;3.90;99.90;;;;;;4970711;28;20075;-80
2021/12/08 00:30:25;;;;;;;4.13;1.70;;;3.90;99.90;;;;;;4986913;28;20144;-80
2021/12/08 00:32:52;;;;;;;1.20;1.20;;;3.90;99.90;;;;;;4986013;28;20042;-82
2021/12/08 00:35:18;;;;;;;2.13;1.93;;;3.90;99.90;;;;;;4986479;28;20665;-80
2021/12/08 00:37:44;;;;;;;2.70;2.23;;;3.90;99.90;;;;;;4984652;28;20046;-80
2021/12/08 00:40:12;;;;;;;0.73;0.73;;;4.00;99.90;;;;;;4987058;28;20472;-80
2021/12/08 00:42:38;;;;;;;1.33;1.10;;;4.00;99.90;;;;;;4986942;28;20054;-80
2021/12/08 00:45:06;;;;;;;1.67;1.57;;;4.00;99.90;;;;;;4986603;28;20039;-80
2021/12/08 00:47:32;;;;;;;2.72;1.42;;;4.00;99.90;;;;;;4985785;28;20452;-80
2021/12/08 00:49:57;;;;;;;2.63;1.73;;;4.00;99.90;;;;;;4966062;28;20101;-80
2021/12/08 00:52:28;;;;;;;2.20;2.00;;;4.00;99.90;;;;;;4975135;28;20058;-80
2021/12/08 00:54:54;;;;;;;3.80;1.47;;;4.00;99.90;;;;;;4986583;28;20038;-80
2021/12/08 00:57:20;;;;;;;1.27;1.27;;;4.00;99.90;;;;;;4987534;28;20057;-80
2021/12/08 00:59:45;;;;;;;7.43;1.90;;;4.00;99.90;;;;;;4976563;28;20242;-80
2021/12/08 01:02:11;;;;;;;3.40;2.60;;;4.00;99.90;;;;;;4984964;28;20082;-80
2021/12/08 01:04:36;;;;;;;2.90;2.50;;;4.00;99.90;;;;;;4986891;28;20089;-80
2021/12/08 01:07:03;;;;;;;1.03;0.97;;;4.00;99.90;;;;;;4984980;28;20042;-80
2021/12/08 01:09:29;;;;;;;1.98;1.85;;;4.00;99.90;;;;;;4969375;28;20497;-80
2021/12/08 01:11:57;;;;;;;6.00;2.03;;;4.00;99.90;;;;;;4967035;28;20069;-80
2021/12/08 01:14:24;;;;;;;16.33;2.40;;;4.00;99.90;;;;;;4967343;28;20054;-80
2021/12/08 01:16:51;;;;;;;2.73;2.00;;;4.00;99.90;;;;;;4967471;28;20490;-80
2021/12/08 01:19:17;;;;;;;1.37;1.37;;;4.00;99.90;;;;;;4980463;28;20493;-80
2021/12/08 01:21:43;;;;;;;2.33;2.13;;;4.00;99.90;;;;;;4968478;28;20101;-80
2021/12/08 01:24:09;;;;;;;1.00;1.00;;;4.10;99.90;;;;;;4984856;28;20050;-80
2021/12/08 01:26:34;;;;;;;3.30;2.07;;;4.00;99.90;;;;;;4984794;28;20111;-80
2021/12/08 01:29:00;;;;;;;1.40;1.30;;;4.00;99.90;;;;;;4979126;28;20042;-80
2021/12/08 01:31:27;;;;;;;1.73;1.63;;;4.00;99.90;;;;;;4985532;28;20038;-80
2021/12/08 01:33:53;;;;;;;0.87;0.87;;;4.00;99.90;;;;;;4984131;28;20054;-81
2021/12/08 01:36:18;;;;;;;2.13;2.03;;;4.10;99.90;;;;;;4985839;28;20049;-80
2021/12/08 01:38:45;;;;;;;1.93;1.83;;;4.10;99.90;;;;;;4985884;28;20049;-80
2021/12/08 01:41:11;;;;;;;3.17;1.80;;;4.10;99.90;;;;;;4969458;28;20646;-80
2021/12/08 01:43:42;;;;;;;1.63;1.53;;;4.10;99.90;;;;;;4972873;28;20073;-80
2021/12/08 01:46:13;;;;;;;2.80;2.60;;;4.10;99.90;;;;;;4980946;28;20440;-80
2021/12/08 01:48:42;;;;;;;1.13;1.13;;;4.10;99.90;;;;;;4984881;28;20054;-80
2021/12/08 01:51:11;;;;;;;2.30;1.77;;;4.10;99.90;;;;;;4984717;28;20050;-80
2021/12/08 01:53:42;;;;;;;2.13;2.03;;;4.10;99.90;;;;;;4986214;28;20133;-80
2021/12/08 01:56:09;;;;;;;2.73;2.40;;;4.10;99.90;;;;;;4972893;28;20134;-80
2021/12/08 01:58:36;;;;;;;3.73;2.00;;;4.10;99.90;;;;;;4966832;28;20105;-80
2021/12/08 02:01:05;;;;;;;2.15;2.05;;;4.10;99.90;;;;;;4965964;28;20050;-79
2021/12/08 02:03:33;;;;;;;1.80;1.70;;;4.10;99.90;;;;;;4966183;28;20058;-80
2021/12/08 02:06:00;;;;;;;1.93;1.83;;;4.10;99.90;;;;;;5008509;23;20064;-80
2021/12/08 02:08:26;;;;;;;5.43;2.27;;;4.20;99.90;;;;;;5023624;28;20048;-80
2021/12/08 02:10:52;;;;;;;4.10;1.93;;;4.20;99.90;;;;;;5024653;28;20041;-80
2021/12/08 02:13:18;;;;;;;1.57;1.47;;;4.20;99.90;;;;;;5007474;28;20834;-80
2021/12/08 02:15:45;;;;;;;1.60;1.10;;;4.20;99.90;;;;;;5015887;28;20435;-80
2021/12/08 02:18:13;;;;;;;2.63;1.73;;;4.20;99.90;;;;;;5000170;28;20568;-80
2021/12/08 02:20:42;;;;;;;2.20;2.00;;;4.20;99.90;;;;;;5023855;28;20407;-80
2021/12/08 02:23:08;;;;;;;2.10;2.00;;;4.20;99.90;;;;;;4990389;28;20050;-80
2021/12/08 02:25:35;;;;;;;1.75;1.30;;;4.20;99.90;;;;;;5023103;28;20041;-80
2021/12/08 02:28:03;;;;;;;3.97;3.13;;;4.30;99.90;;;;;;5024110;28;20119;-80
2021/12/08 02:49:09;;;;;;;3.20;2.58;;;4.40;99.90;;;;;;5005979;28;20129;-79
2021/12/08 02:51:36;;;;;;;2.90;2.63;;;4.40;99.90;;;;;;5005594;28;20188;-80
2021/12/08 02:54:03;;;;;;;4.27;2.90;;;4.40;99.90;;;;;;5010608;28;20042;-79
2021/12/08 02:56:30;;;;;;;9.15;3.15;;;4.40;99.90;;;;;;5004197;28;20052;-79
2021/12/08 02:58:56;;;;;;;1.63;1.53;;;4.40;99.90;;;;;;4986817;28;20049;-79
2021/12/08 03:01:22;;;;;;;2.37;2.27;;;4.50;99.90;;;;;;5004269;28;20046;-80
2021/12/08 03:03:49;;;;;;;2.93;2.73;;;4.50;99.90;;;;;;5015629;28;20041;-79
2021/12/08 03:06:15;;;;;;;7.30;2.08;;;4.50;99.90;;;;;;5022374;28;20053;-79
2021/12/08 03:08:41;;;;;;;2.78;2.58;;;4.50;99.90;;;;;;5023576;28;20399;-79
2021/12/08 03:11:08;;;;;;;10.43;3.65;;;4.50;99.90;;;;;;5005869;28;20048;-79
2021/12/08 03:13:41;;;;;;;2.45;2.35;;;4.50;99.90;;;;;;5014704;28;20251;-79
2021/12/08 03:16:09;;;;;;;3.80;2.88;;;4.60;99.90;;;;;;5003584;28;20042;-79
2021/12/08 03:18:38;;;;;;;1.53;1.20;;;4.60;99.90;;;;;;5003939;28;20508;-79
2021/12/08 03:21:07;;;;;;;1.33;1.27;;;4.60;99.90;;;;;;4984843;28;20056;-79
2021/12/08 03:24:08;;;;;;;4.27;2.23;;;4.60;99.90;;;;;;5012077;28;20086;-79
2021/12/08 03:26:27;;;;;;;4.20;2.50;;;4.60;99.90;;;;;;5006003;28;20415;-77
2021/12/08 03:29:02;;;;;;;3.40;3.20;;;4.60;99.90;;;;;;4998629;28;20508;-77
2021/12/08 03:31:33;;;;;;;1.88;1.77;;;4.70;99.90;;;;;;5003863;28;20072;-77
2021/12/08 03:33:58;;;;;;;3.55;3.25;;;4.70;99.90;;;;;;5015055;28;20041;-77
2021/12/08 03:36:24;;;;;;;2.78;2.55;;;4.70;99.90;;;;;;5003759;28;20034;-77
2021/12/08 03:38:50;;;;;;;3.00;2.80;;;4.70;99.90;;;;;;5023533;28;20046;-77
2021/12/08 03:41:15;;;;;;;6.07;4.38;;;4.70;99.90;;;;;;5023408;28;20455;-77
2021/12/08 03:43:41;;;;;;;2.30;2.20;;;4.70;99.90;;;;;;4995526;28;20053;-77
2021/12/08 03:46:11;;;;;;;6.90;4.00;;;4.80;99.90;;;;;;5003154;28;20128;-77
2021/12/08 03:48:45;;;;;;;3.08;2.85;;;4.80;99.90;;;;;;5002351;28;20099;-77
2021/12/08 03:51:11;;;;;;;3.03;2.83;;;4.80;99.90;;;;;;5002117;28;20500;-77
2021/12/08 03:53:37;;;;;;;2.83;2.63;;;4.80;99.90;;;;;;4993818;28;20048;-77
2021/12/08 03:56:03;;;;;;;4.13;2.22;;;4.80;99.90;;;;;;5023093;28;20132;-77
2021/12/08 03:58:29;;;;;;;3.30;3.00;;;4.80;99.90;;;;;;5022655;28;20034;-77
2021/12/08 04:00:56;;;;;;;3.13;2.83;;;4.80;99.90;;;;;;5022504;28;20049;-78
2021/12/08 04:03:25;;;;;;;1.83;1.73;;;4.90;99.90;;;;;;5015661;28;20116;-77
2021/12/08 04:05:57;;;;;;;3.23;3.03;;;4.80;99.90;;;;;;4980931;28;20046;-77
2021/12/08 04:08:39;;;;;;;2.67;2.53;;;4.80;99.90;;;;;;4983776;28;20057;-78
2021/12/08 04:11:06;;;;;;;9.18;2.97;;;4.90;99.90;;;;;;4982817;28;20242;-77
2021/12/08 04:13:45;;;;;;;5.20;2.47;;;4.90;99.90;;;;;;4989118;28;20054;-77
2021/12/08 04:16:13;;;;;;;2.47;2.28;;;4.90;99.90;;;;;;5001516;28;20058;-77
2021/12/08 04:18:39;;;;;;;4.90;2.55;;;4.90;99.90;;;;;;5002420;28;20121;-77
2021/12/08 04:21:06;;;;;;;2.95;2.40;;;4.90;99.90;;;;;;5001651;28;20125;-77
2021/12/08 04:23:36;;;;;;;2.88;2.50;;;4.90;99.90;;;;;;4995871;28;20038;-77
2021/12/08 04:26:07;;;;;;;5.53;4.43;;;4.90;99.90;;;;;;4981957;28;20053;-77
2021/12/08 04:28:34;;;;;;;4.43;4.03;;;4.90;99.90;;;;;;4981947;28;20050;-77
2021/12/08 04:31:08;;;;;;;2.47;2.28;;;5.00;99.90;;;;;;4965882;28;20043;-77
2021/12/08 04:33:35;;;;;;;2.35;2.22;;;5.00;99.90;;;;;;4983118;28;20061;-77
2021/12/08 04:36:02;;;;;;;4.63;4.25;;;5.00;99.90;;;;;;4980971;28;20039;-77
2021/12/08 04:38:36;;;;;;;2.60;2.40;;;5.00;99.90;;;;;;4983419;28;20498;-77
2021/12/08 04:41:08;;;;;;;8.13;3.33;;;5.10;99.90;;;;;;4983238;28;20476;-77
2021/12/08 04:43:46;;;;;;;5.97;3.28;;;5.10;99.90;;;;;;4988994;28;20046;-77
2021/12/08 04:46:45;;;;;;;2.83;2.42;;;5.10;99.90;;;;;;4985166;28;20041;-77
2021/12/08 04:52:02;;;;;;;4.37;4.00;;;5.10;99.90;;;;;;5002097;28;20054;-77
2021/12/08 05:00:40;;;;;;;2.47;2.30;;;5.10;99.90;;;;;;4985138;28;20057;-77
2021/12/08 05:08:20;;;;;;;2.08;1.98;;;5.10;99.90;;;;;;4993248;28;20057;-77
2021/12/08 05:10:48;;;;;;;5.63;3.70;;;5.10;99.90;;;;;;5008747;28;20045;-77
2021/12/08 05:13:17;;;;;;;3.33;2.88;;;5.20;99.90;;;;;;5004467;28;20050;-77
2021/12/08 05:15:55;;;;;;;4.60;3.40;;;5.20;99.90;;;;;;5006006;28;20531;-78
2021/12/08 05:18:26;;;;;;;3.13;2.92;;;5.20;99.90;;;;;;4988540;28;20046;-79
2021/12/08 05:21:06;;;;;;;2.45;2.25;;;5.10;99.90;;;;;;4986913;28;20107;-78
2021/12/08 05:23:36;;;;;;;3.25;3.08;;;5.20;99.90;;;;;;5011205;28;20089;-78
2021/12/08 05:26:14;;;;;;;5.80;3.30;;;5.10;99.90;;;;;;5025409;28;20128;-78
2021/12/08 05:28:41;;;;;;;8.75;3.53;;;5.10;99.90;;;;;;5019308;28;20069;-78
2021/12/08 05:31:15;;;;;;;2.67;1.85;;;5.10;99.90;;;;;;4972110;28;20046;-78
2021/12/08 05:33:44;;;;;;;2.88;2.67;;;5.20;99.90;;;;;;5012106;28;20138;-78
2021/12/08 05:36:12;;;;;;;2.30;2.20;;;5.10;99.90;;;;;;5023116;28;20041;-78
2021/12/08 05:38:39;;;;;;;2.10;1.90;;;5.10;99.90;;;;;;5007701;28;20133;-78
2021/12/08 05:41:12;;;;;;;2.20;1.55;;;5.10;99.90;;;;;;5007415;28;20180;-78
2021/12/08 05:43:38;;;;;;;3.95;2.95;;;5.10;99.90;;;;;;5023607;28;20067;-78
2021/12/08 05:46:05;;;;;;;2.38;2.05;;;5.10;99.90;;;;;;5024872;28;20037;-78
2021/12/08 05:48:33;;;;;;;1.17;1.17;;;5.10;99.90;;;;;;5007802;28;20048;-78
2021/12/08 05:51:07;;;;;;;2.83;2.22;;;5.20;99.90;;;;;;5006523;28;20052;-78
2021/12/08 05:53:35;;;;;;;1.92;1.83;;;5.20;99.90;;;;;;5019537;28;20045;-78
2021/12/08 05:56:01;;;;;;;2.33;1.80;;;5.10;99.90;;;;;;4987778;28;20510;-78
2021/12/08 05:58:28;;;;;;;2.03;1.33;;;5.20;99.90;;;;;;5005081;28;20093;-79
2021/12/08 06:01:06;;;;;;;3.47;2.30;;;5.20;99.90;;;;;;4987422;28;20046;-79
2021/12/08 06:03:32;;;;;;;2.72;2.47;;;5.20;99.90;;;;;;5016108;28;20030;-79
2021/12/08 06:05:58;;;;;;;2.10;1.83;;;5.20;99.90;;;;;;5002988;28;20623;-80
2021/12/08 06:08:27;;;;;;;3.38;2.35;;;5.20;99.90;;;;;;5004864;28;20711;-80
2021/12/08 06:10:55;;;;;;;2.38;2.15;;;5.20;99.90;;;;;;4986962;28;20061;-80
2021/12/08 06:13:20;;;;;;;2.45;2.25;;;5.20;99.90;;;;;;4989888;28;20547;-80
2021/12/08 06:15:48;;;;;;;1.85;1.75;;;5.20;99.90;;;;;;5024652;28;20175;-80
2021/12/08 06:18:15;;;;;;;2.97;2.70;;;5.20;99.90;;;;;;5021574;28;20038;-79
2021/12/08 06:20:41;;;;;;;3.95;2.05;;;5.20;99.90;;;;;;5011057;28;20569;-82
2021/12/08 06:23:08;;;;;;;8.57;3.80;;;5.20;99.90;;;;;;4996146;28;20037;-79
2021/12/08 06:25:36;;;;;;;12.50;3.17;;;5.20;99.90;;;;;;5006758;28;20045;-81
2021/12/08 06:28:01;;;;;;;2.58;2.47;;;5.20;99.90;;;;;;5024047;28;20509;-81
2021/12/08 06:30:31;;;;;;;1.88;1.77;;;5.20;99.90;;;;;;5004902;28;20046;-80
2021/12/08 06:32:57;;;;;;;2.50;2.30;;;5.20;99.90;;;;;;5004448;28;20708;-81
2021/12/08 06:35:42;;;;;;;2.67;2.30;;;5.20;99.90;;;;;;5003504;28;20072;-81
2021/12/08 06:38:09;;;;;;;3.05;2.35;;;5.20;99.90;;;;;;5004462;28;20500;-82
2021/12/08 06:40:45;;;;;;;5.55;1.65;;;5.20;99.90;;;;;;5021765;28;20199;-84
2021/12/08 06:43:15;;;;;;;6.93;2.78;;;5.20;99.90;;;;;;5018845;28;20099;-83
2021/12/08 06:45:45;;;;;;;3.63;2.40;;;5.20;99.90;;;;;;5003488;28;20516;-82
2021/12/08 06:48:15;;;;;;;8.35;4.13;;;5.20;99.90;;;;;;4991174;28;20056;-80
2021/12/08 06:50:50;;;;;;;2.75;2.55;;;5.20;99.90;;;;;;5014222;28;20056;-78
2021/12/08 06:53:16;;;;;;;3.42;2.15;;;5.20;99.90;;;;;;5012493;28;20132;-78
2021/12/08 06:55:48;;;;;;;1.55;1.50;;;5.20;99.90;;;;;;5008889;28;20108;-79
2021/12/08 06:58:18;;;;;;;;;;;5.20;99.90;;;;;;5024672;28;20090;-78
2021/12/08 07:03:45;;;;;;;1.17;1.17;;;5.20;99.90;;;;;;4994752;28;20062;-79
2021/12/08 07:06:40;;;;;;;4.43;2.42;;;5.30;99.90;;;;;;5000514;28;20053;-80
2021/12/08 07:09:06;;;;;;;1.02;1.02;;;5.30;99.90;;;;;;5001965;28;20549;-79
2021/12/08 07:11:34;;;;;;;1.42;1.33;;;5.30;99.90;;;;;;5005815;28;20679;-80
2021/12/08 07:14:00;;;;;;;1.52;1.42;;;5.30;99.90;;;;;;5014691;28;20137;-81
2021/12/08 07:16:36;;;;;;;3.95;2.22;;;5.30;99.90;;;;;;5003167;28;20217;-81
2021/12/08 07:19:13;;;;;;;2.58;2.35;;;5.30;99.90;;;;;;5010438;28;20791;-81
2021/12/08 07:21:46;;;;;;;1.38;1.23;;;5.30;99.90;;;;;;5022673;28;20072;-81
2021/12/08 07:24:20;;;;;;;1.33;1.23;;;5.30;99.90;;;;;;5006435;28;20034;-81
2021/12/08 07:26:48;;;;;;;3.85;2.25;;;5.30;99.90;;;;;;5002974;28;20068;-81
2021/12/08 07:29:19;;;;;;;2.47;2.38;;;5.30;99.90;;;;;;5002908;28;20090;-81
2021/12/08 07:31:48;;;;;;;14.30;1.52;;;5.30;99.90;;;;;;4985600;28;20103;-80
2021/12/08 07:34:18;;;;;;;3.67;2.47;;;5.30;99.90;;;;;;5002570;28;20057;-81
2021/12/08 07:36:48;;;;;;;1.67;1.58;;;5.30;99.90;;;;;;5002527;28;20046;-81
2021/12/08 07:39:20;;;;;;;1.17;1.10;;;5.30;99.90;;;;;;5000277;28;20056;-81
2021/12/08 07:41:52;;;;;;;3.17;2.83;;;5.30;99.90;;;;;;5023132;28;20038;-80
2021/12/08 07:44:21;;;;;;;2.67;2.47;;;5.30;99.90;;;;;;4975751;28;20068;-81
2021/12/08 07:46:51;;;;;;;2.72;1.38;;;5.30;99.90;;;;;;5003630;28;20488;-81
2021/12/08 07:49:42;;;;;;;1.90;1.80;;;5.30;99.90;;;;;;4983887;28;20045;-81
2021/12/08 07:52:22;;;;;;;1.02;1.02;;;5.30;99.90;;;;;;5022441;28;20048;-83
2021/12/08 07:54:50;;;;;;;1.42;1.38;;;5.30;99.90;;;;;;5005802;28;20150;-82
2021/12/08 07:57:21;;;;;;;2.58;1.65;;;5.30;99.90;;;;;;5020078;28;20045;-83
2021/12/08 07:59:53;;;;;;;2.15;1.92;;;5.30;99.90;;;;;;5010462;28;20108;-87
2021/12/08 08:02:19;;;;;;;2.90;2.70;;;5.40;99.90;;;;;;4994618;28;20478;-89
2021/12/08 08:04:48;;;;;;;2.25;1.27;;;5.40;99.90;;;;;;4982292;28;20382;-83
2021/12/08 08:07:15;;;;;;;1.67;1.17;;;5.40;99.90;;;;;;5001564;28;20050;-83
2021/12/08 08:09:48;;;;;;;0.85;0.85;;;5.40;99.90;;;;;;5001663;28;20093;-83
2021/12/08 08:12:18;;;;;;;2.30;1.52;;;5.40;99.90;;;;;;5001736;28;20103;-82
2021/12/08 08:14:53;;;;;;;4.18;1.08;;;5.30;99.90;;;;;;4984160;28;20357;-82
2021/12/08 08:17:28;;;;;;;2.13;1.92;;;5.30;99.90;;;;;;5002542;28;20074;-83
2021/12/08 08:19:54;;;;;;;4.30;1.92;;;5.40;99.90;;;;;;4982935;28;20045;-83
2021/12/08 08:22:24;;;;;;;1.25;1.25;;;5.40;99.90;;;;;;5001687;28;20038;-83
2021/12/08 08:24:52;;;;;;;21.13;2.55;;;5.40;99.90;;;;;;5001967;28;20042;-83
2021/12/08 08:27:17;;;;;;;6.93;1.35;;;5.30;99.90;;;;;;5001910;28;20246;-87
2021/12/08 08:29:43;;;;;;;0.35;0.35;;;5.30;99.90;;;;;;5004290;28;20049;-86
2021/12/08 08:32:25;;;;;;;10.60;2.50;;;5.30;99.90;;;;;;5005088;28;20331;-86
2021/12/08 08:34:56;;;;;;;2.28;1.85;;;5.30;99.90;;;;;;4986621;28;20100;-85
2021/12/08 08:37:22;;;;;;;2.00;1.27;;;5.30;99.90;;;;;;4987688;28;20087;-85
2021/12/08 08:39:53;;;;;;;0.85;0.85;;;5.30;99.90;;;;;;4987963;28;20630;-85
2021/12/08 08:42:24;;;;;;;5.00;1.30;;;5.20;99.90;;;;;;4987959;28;20046;-85
2021/12/08 08:45:00;;;;;;;0.82;0.82;;;5.20;99.90;;;;;;4988132;28;20046;-85
2021/12/08 08:47:31;;;;;;;1.30;1.23;;;5.20;99.90;;;;;;4987481;28;20113;-85
2021/12/08 08:49:57;;;;;;;2.78;0.95;;;5.20;99.90;;;;;;4985967;28;20057;-85
2021/12/08 08:52:31;;;;;;;1.08;0.65;;;5.20;99.90;;;;;;5005299;28;20042;-85
2021/12/08 08:55:00;;;;;;;5.20;0.70;;;5.20;99.90;;;;;;5004946;28;20050;-81
2021/12/08 08:57:30;;;;;;;1.23;1.02;;;5.20;99.90;;;;;;5005170;28;20049;-81
2021/12/08 09:00:07;;;;;;;2.55;1.23;;;5.10;99.90;;;;;;5004621;28;20046;-82
2021/12/08 09:02:38;;;;;;;0.95;0.93;;;5.20;99.90;;;;;;5005187;28;20056;-81
2021/12/08 09:05:13;;;;;;;2.90;1.45;;;5.10;99.90;;;;;;4986314;28;20125;-84
2021/12/08 09:07:43;;;;;;;1.83;1.73;;;5.10;99.90;;;;;;4987381;28;20108;-84
2021/12/08 09:10:16;;;;;;;2.25;0.65;;;5.10;99.90;;;;;;4987087;28;20389;-84
2021/12/08 09:12:49;;;;;;;;;;;5.10;99.90;;;;;;4987628;28;20045;-84
2021/12/08 09:15:21;;;;;;;0.85;0.85;;;5.10;99.90;;;;;;4986617;28;19925;-84
2021/12/08 09:18:18;;;;;;;4.10;1.07;;;5.10;99.90;;;;;;5005532;28;20057;-84
2021/12/08 09:21:09;;;;;;;3.13;1.13;;;5.10;99.90;;;;;;4968921;28;20060;-84
2021/12/08 09:23:45;;;;;;;1.83;0.98;;;5.10;99.90;;;;;;5004234;28;20177;-83
2021/12/08 09:26:14;;;;;;;4.45;1.50;;;5.10;99.90;;;;;;4986772;28;20112;-80
2021/12/08 09:29:05;;;;;;;2.50;1.80;;;5.20;99.90;;;;;;5009104;28;20549;-81
2021/12/08 09:31:39;;;;;;;1.30;1.10;;;5.20;99.90;;;;;;4990064;28;20073;-81
2021/12/08 09:34:15;;;;;;;0.55;0.55;;;5.20;99.90;;;;;;5006182;28;20037;-82
2021/12/08 09:36:49;;;;;;;1.40;1.05;;;5.20;99.90;;;;;;5005844;28;20495;-81
2021/12/08 09:39:24;;;;;;;2.78;1.17;;;5.20;99.90;;;;;;5006186;28;20116;-81
2021/12/08 09:42:24;;;;;;;8.02;1.35;;;5.20;99.90;;;;;;5023730;28;20499;-80
2021/12/08 09:44:58;;;;;;;0.63;0.60;;;5.20;99.90;;;;;;4964461;28;20064;-80
2021/12/08 09:47:29;;;;;;;1.70;0.88;;;5.20;99.90;;;;;;5023783;28;20424;-79
2021/12/08 09:50:00;;;;;;;1.98;1.50;;;5.30;99.90;;;;;;5022686;28;20048;-80
2021/12/08 09:52:27;;;;;;;0.80;0.80;;;5.30;99.90;;;;;;5006511;28;20045;-79
2021/12/08 09:54:56;;;;;;;1.80;1.20;;;5.30;99.90;;;;;;5023717;28;20045;-80
2021/12/08 09:57:22;;;;;;;30.85;2.38;;;5.30;99.90;;;;;;5023749;28;20034;-81
2021/12/08 09:59:47;;;;;;;2.15;1.27;;;5.30;99.90;;;;;;5024259;28;20110;-82
2021/12/08 10:02:29;;;;;;;0.50;0.50;;;5.30;99.90;;;;;;5023138;28;20060;-82
2021/12/08 10:05:01;;;;;;;2.70;1.23;;;5.30;99.90;;;;;;5004293;28;20057;-86
2021/12/08 10:07:27;;;;;;;1.40;1.30;;;5.30;99.90;;;;;;5023562;28;20504;-81
2021/12/08 10:09:54;;;;;;;2.58;1.65;;;5.30;99.90;;;;;;5023293;28;20088;-80
2021/12/08 10:12:20;;;;;;;1.63;1.52;;;5.30;99.90;;;;;;5024358;28;20391;-79
2021/12/08 10:14:46;;;;;;;5.43;0.88;;;5.30;99.90;;;;;;5023642;28;20052;-79
2021/12/08 10:17:14;;;;;;;1.85;1.27;;;5.30;99.90;;;;;;5022864;28;20056;-81
2021/12/08 10:19:41;;;;;;;5.28;1.85;;;5.30;99.90;;;;;;5004394;28;20042;-79
2021/12/08 10:22:21;;;;;;;1.75;1.25;;;5.30;99.90;;;;;;5022530;28;20045;-83
2021/12/08 10:25:09;;;;;;;1.35;1.30;;;5.30;99.90;;;;;;5023796;28;20080;-84
2021/12/08 10:28:05;;;;;;;2.70;1.00;;;5.30;99.90;;;;;;5005348;28;20052;-83
2021/12/08 10:30:34;;;;;;;1.55;1.38;;;5.30;99.90;;;;;;5003486;28;20452;-80
2021/12/08 10:33:07;;;;;;;0.68;0.68;;;5.30;99.90;;;;;;5003420;28;20504;-80
2021/12/08 10:35:48;;;;;;;1.17;0.82;;;5.30;99.90;;;;;;4984285;28;20046;-80
2021/12/08 10:38:16;;;;;;;0.75;0.63;;;5.40;99.90;;;;;;5001798;28;20057;-79
2021/12/08 10:40:56;;;;;;;1.55;1.30;;;5.40;99.90;;;;;;5003139;28;20089;-79
2021/12/08 10:43:22;;;;;;;0.40;0.40;;;5.40;99.90;;;;;;5002907;28;20038;-78
2021/12/08 10:45:59;;;;;;;2.92;1.63;;;5.40;99.90;;;;;;5001877;28;20058;-77
2021/12/08 10:48:35;;;;;;;2.85;1.08;;;5.40;99.90;;;;;;4984744;28;20046;-82
2021/12/08 10:56:41;;;;;;;3.95;0.57;;;5.40;99.90;;;;;;5002504;28;20045;-81
2021/12/08 10:59:07;;;;;;;9.60;1.65;;;5.50;99.90;;;;;;5002684;28;20489;-79
2021/12/08 11:01:34;;;;;;;2.50;1.30;;;5.40;99.90;;;;;;5002698;28;20045;-79
2021/12/08 11:04:06;;;;;;;1.08;1.08;;;5.50;99.90;;;;;;4984847;28;20557;-81
2021/12/08 11:06:33;;;;;;;1.55;1.20;;;5.50;99.90;;;;;;4984978;28;20577;-83
2021/12/08 11:08:59;;;;;;;4.53;1.15;;;5.50;99.90;;;;;;4985024;28;20570;-81
2021/12/08 11:11:32;;;;;;;2.95;2.15;;;5.50;99.90;;;;;;5003226;28;20468;-80
2021/12/08 11:14:04;;;;;;;1.13;1.02;;;5.50;99.90;;;;;;5007426;28;20101;-82
2021/12/08 11:16:33;;;;;;;14.10;1.08;;;5.50;99.90;;;;;;5011060;28;20503;-82
2021/12/08 11:19:11;;;;;;;1.65;1.27;;;5.50;99.90;;;;;;5012029;28;20049;-80
2021/12/08 11:21:47;;;;;;;4.10;1.70;;;5.50;99.90;;;;;;5012150;28;20041;-81
2021/12/08 11:24:31;;;;;;;0.93;0.60;;;5.60;99.90;;;;;;4994235;28;20046;-83
2021/12/08 11:26:58;;;;;;;1.08;0.98;;;5.60;99.90;;;;;;5013295;28;20041;-80
2021/12/08 11:29:28;;;;;;;1.58;1.45;;;5.60;99.90;;;;;;5021189;28;20060;-81
2021/12/08 11:31:59;;;;;;;1.63;1.27;;;5.60;99.90;;;;;;5021452;28;20064;-81
2021/12/08 11:34:26;;;;;;;1.27;1.27;;;5.60;99.90;;;;;;5005937;28;20067;-80
2021/12/08 11:36:55;;;;;;;1.50;1.45;;;5.60;99.90;;;;;;5004048;28;20076;-81
2021/12/08 11:39:48;;;;;;;3.58;2.00;;;5.60;99.90;;;;;;5022536;28;20041;-77
2021/12/08 11:42:21;;;;;;;0.77;0.77;;;5.60;99.90;;;;;;5022125;28;20416;-80
2021/12/08 11:44:56;;;;;;;2.30;2.10;;;5.60;99.90;;;;;;5005402;28;20697;-80
2021/12/08 11:47:28;;;;;;;1.38;1.27;;;5.60;99.90;;;;;;5022522;28;20054;-79
2021/12/08 11:49:56;;;;;;;1.50;1.48;;;5.60;99.90;;;;;;5018989;28;20093;-80
2021/12/08 11:52:29;;;;;;;7.20;1.75;;;5.60;99.90;;;;;;4992450;28;20129;-80
2021/12/08 11:55:00;;;;;;;1.55;1.45;;;5.60;99.90;;;;;;4992834;28;20071;-79
2021/12/08 11:57:32;;;;;;;1.65;1.55;;;5.60;99.90;;;;;;5012236;28;20047;-79
2021/12/08 12:00:01;;;;;;;;;;;5.60;99.90;;;;;;5012055;28;20065;-79
2021/12/08 12:02:37;;;;;;;1.85;1.75;;;5.60;99.90;;;;;;5009599;28;20132;-79
2021/12/08 12:05:16;;;;;;;1.15;1.15;;;5.60;99.90;;;;;;5004011;28;20045;-81
2021/12/08 12:07:43;;;;;;;1.30;1.20;;;5.60;99.90;;;;;;5002948;28;20129;-81
2021/12/08 12:10:10;;;;;;;1.63;1.52;;;5.60;99.90;;;;;;4984581;28;20054;-83
2021/12/08 12:12:39;;;;;;;1.55;1.05;;;5.60;99.90;;;;;;5003352;28;20091;-80
2021/12/08 12:15:06;;;;;;;1.98;1.60;;;5.60;99.90;;;;;;5019200;28;20099;-80
2021/12/08 12:17:32;;;;;;;1.42;1.33;;;5.70;99.90;;;;;;5002620;28;20266;-79
2021/12/08 12:20:04;;;;;;;0.70;0.70;;;5.70;99.90;;;;;;5020316;28;20061;-79
2021/12/08 12:22:38;;;;;;;1.05;1.05;;;5.70;99.90;;;;;;5021138;28;20321;-79
2021/12/08 12:25:20;;;;;;;7.78;2.00;;;5.70;99.90;;;;;;5021726;28;20042;-80
2021/12/08 12:28:04;;;;;;;;;;;5.70;99.90;;;;;;5004583;28;20038;-78
2021/12/08 12:30:51;;;;;;;8.07;2.47;;;5.70;99.90;;;;;;4984910;28;19921;-78
2021/12/08 12:33:22;;;;;;;1.63;1.52;;;5.70;99.90;;;;;;5002283;28;20107;-79
2021/12/08 12:35:54;;;;;;;2.42;1.80;;;5.70;99.90;;;;;;4992921;28;20064;-81
2021/12/08 12:38:34;;;;;;;5.10;2.10;;;5.70;99.90;;;;;;5010849;28;20041;-79
2021/12/08 12:41:00;;;;;;;0.65;0.65;;;5.70;99.90;;;;;;5019465;28;20047;-79
2021/12/08 12:43:29;;;;;;;1.75;1.65;;;5.70;99.90;;;;;;5021664;28;20116;-79
2021/12/08 12:46:13;;;;;;;4.88;1.92;;;5.70;99.90;;;;;;5003451;28;20188;-79
2021/12/08 12:48:40;;;;;;;5.78;2.28;;;5.70;99.90;;;;;;5021213;28;20046;-79
2021/12/08 12:51:10;;;;;;;1.60;1.42;;;5.70;99.90;;;;;;5002270;28;20048;-80
2021/12/08 12:53:44;;;;;;;3.95;1.75;;;5.70;99.90;;;;;;5021320;28;20052;-79
2021/12/08 12:56:35;;;;;;;1.02;1.02;;;5.70;99.90;;;;;;5021271;28;20041;-78
2021/12/08 12:59:11;;;;;;;1.23;1.20;;;5.70;99.90;;;;;;5002693;28;20050;-79
2021/12/08 13:01:44;;;;;;;2.33;2.13;;;5.70;99.90;;;;;;5021602;28;20041;-79
2021/12/08 13:04:19;;;;;;;;;;;5.70;99.90;;;;;;5020181;28;20041;-80
2021/12/08 13:06:46;;;;;;;1.20;1.15;;;5.70;99.90;;;;;;5003734;28;19921;-79
2021/12/08 13:09:32;;;;;;;1.48;1.38;;;5.70;99.90;;;;;;5021066;28;20053;-79
2021/12/08 13:12:07;;;;;;;1.73;1.65;;;5.70;99.90;;;;;;5021086;28;20515;-79
2021/12/08 13:14:33;;;;;;;2.17;2.05;;;5.70;99.90;;;;;;5004428;28;20049;-79
2021/12/08 13:17:13;;;;;;;1.10;1.10;;;5.70;99.90;;;;;;5024655;28;20044;-79
2021/12/08 13:19:41;;;;;;;1.60;1.50;;;5.70;99.90;;;;;;5006565;28;20395;-79
2021/12/08 13:22:07;;;;;;;1.83;0.90;;;5.70;99.90;;;;;;5024320;28;20120;-80
2021/12/08 13:24:42;;;;;;;2.78;1.55;;;5.70;99.90;;;;;;5006701;28;20107;-78
2021/12/08 13:27:13;;;;;;;1.35;1.30;;;5.70;99.90;;;;;;5024546;28;20116;-80
2021/12/08 13:29:46;;;;;;;0.98;0.68;;;5.70;99.90;;;;;;5011676;28;20539;-79
2021/12/08 13:32:15;;;;;;;1.30;1.20;;;5.70;99.90;;;;;;5005247;28;20092;-80
2021/12/08 13:35:01;;;;;;;0.98;0.88;;;5.70;99.90;;;;;;5003424;28;20045;-79
2021/12/08 13:37:29;;;;;;;1.13;1.13;;;5.70;99.90;;;;;;5003672;28;20073;-79
2021/12/08 13:40:07;;;;;;;0.98;0.98;;;5.70;99.90;;;;;;5011170;28;20048;-78
2021/12/08 13:42:50;;;;;;;3.20;0.93;;;5.70;99.90;;;;;;4996585;28;20038;-77
2021/12/08 13:45:16;;;;;;;1.23;1.15;;;5.70;99.90;;;;;;4995890;28;20085;-80
2021/12/08 13:47:45;;;;;;;2.10;1.92;;;5.70;99.90;;;;;;5014056;28;20076;-78
2021/12/08 13:50:23;;;;;;;1.30;1.20;;;5.70;99.90;;;;;;5013176;28;20059;-79
2021/12/08 13:53:08;;;;;;;1.23;1.20;;;5.70;99.90;;;;;;4999259;28;20056;-82
2021/12/08 13:55:59;;;;;;;0.75;0.70;;;5.70;99.90;;;;;;5013177;28;20037;-82
2021/12/08 13:58:33;;;;;;;0.55;0.55;;;5.70;99.90;;;;;;4995754;28;20041;-81
2021/12/08 14:01:02;;;;;;;0.80;0.80;;;5.70;99.90;;;;;;5000738;28;20052;-79